Time;durP1;ratioP1;P1;durP2;ratioP2;P2;SDS_P1;SDS_P2;PMS_P1;PMS_P2;Temp;Humidity;BMP_temperature;BMP_pressure;BME280_temperature;BME280_humidity;BME280_pressure;Samples;Min_cycle;Max_cycle;Signal;HPM_P1;HPM_P2
2023/04/15 00:01:52;;;;;;;3.10;2.23;;;8.90;89.00;;;;;;5004032;28;20209;-63
2023/04/15 00:04:19;;;;;;;3.87;2.20;;;8.90;89.30;;;;;;5004947;28;20204;-64
2023/04/15 00:06:51;;;;;;;3.30;2.00;;;8.90;89.80;;;;;;5002212;28;20226;-63
2023/04/15 00:09:19;;;;;;;3.23;2.17;;;8.90;90.00;;;;;;5003822;28;20652;-63
2023/04/15 00:11:46;;;;;;;2.17;1.80;;;8.90;90.10;;;;;;5005100;28;20204;-63
2023/04/15 00:14:14;;;;;;;2.57;2.17;;;8.80;90.20;;;;;;5003643;28;20224;-63
2023/04/15 00:16:41;;;;;;;4.63;2.10;;;8.90;90.20;;;;;;5002815;28;20207;-63
2023/04/15 00:19:08;;;;;;;6.47;2.73;;;8.80;90.20;;;;;;4998559;28;20199;-63
2023/04/15 00:21:35;;;;;;;5.13;2.40;;;8.80;90.20;;;;;;5003489;28;20657;-63
2023/04/15 00:24:02;;;;;;;5.97;2.40;;;8.80;90.20;;;;;;5006621;28;20220;-63
2023/04/15 00:26:29;;;;;;;2.37;2.17;;;8.80;90.30;;;;;;5008962;28;20214;-63
2023/04/15 00:28:56;;;;;;;2.67;1.90;;;8.70;90.40;;;;;;5006086;28;20229;-63
2023/04/15 00:31:24;;;;;;;3.17;1.40;;;8.70;90.30;;;;;;5005533;28;20658;-63
2023/04/15 00:33:52;;;;;;;2.47;1.60;;;8.70;90.30;;;;;;5004324;28;20213;-63
2023/04/15 00:36:21;;;;;;;2.20;1.47;;;8.70;90.30;;;;;;5004341;28;20202;-63
2023/04/15 00:38:49;;;;;;;3.20;1.80;;;8.60;90.30;;;;;;4999902;28;20529;-63
2023/04/15 00:41:18;;;;;;;2.43;2.13;;;8.60;90.30;;;;;;5006379;28;20683;-63
2023/04/15 00:43:45;;;;;;;1.67;1.20;;;8.60;90.40;;;;;;5003346;28;20210;-63
2023/04/15 00:46:13;;;;;;;2.13;1.60;;;8.60;90.40;;;;;;5005327;28;20329;-63
2023/04/15 00:48:41;;;;;;;2.23;2.03;;;8.60;90.60;;;;;;5009587;28;20676;-63
2023/04/15 00:51:08;;;;;;;2.00;1.80;;;8.60;90.60;;;;;;5001868;28;20208;-63
2023/04/15 00:53:35;;;;;;;3.27;1.90;;;8.60;90.60;;;;;;5031356;28;20227;-63
2023/04/15 00:56:02;;;;;;;3.93;1.90;;;8.60;90.70;;;;;;5004184;28;20509;-63
2023/04/15 00:58:29;;;;;;;2.53;2.00;;;8.60;90.70;;;;;;5006415;28;20232;-63
2023/04/15 01:00:57;;;;;;;2.43;1.97;;;8.60;90.50;;;;;;5003740;28;20234;-63
2023/04/15 01:03:24;;;;;;;5.17;2.27;;;8.50;90.30;;;;;;5013611;28;20208;-63
2023/04/15 01:05:57;;;;;;;3.53;2.10;;;8.40;90.40;;;;;;5009803;28;20677;-63
2023/04/15 01:08:28;;;;;;;2.23;1.70;;;8.40;90.60;;;;;;5003298;28;20202;-63
2023/04/15 01:10:57;;;;;;;2.17;1.97;;;8.40;90.70;;;;;;5009448;28;20211;-63
2023/04/15 01:13:25;;;;;;;2.63;2.03;;;8.40;90.80;;;;;;5007214;28;20267;-63
2023/04/15 01:15:52;;;;;;;2.90;1.93;;;8.40;90.80;;;;;;5012538;28;20212;-63
2023/04/15 01:18:20;;;;;;;4.90;2.07;;;8.40;90.90;;;;;;5010279;28;20236;-63
2023/04/15 01:20:47;;;;;;;6.10;2.13;;;8.40;90.90;;;;;;5039537;28;20205;-63
2023/04/15 01:23:15;;;;;;;4.17;2.80;;;8.40;90.90;;;;;;5002749;28;20195;-63
2023/04/15 01:25:43;;;;;;;2.70;2.10;;;8.30;90.90;;;;;;5013586;28;20299;-63
2023/04/15 01:28:11;;;;;;;2.80;2.03;;;8.30;91.10;;;;;;5009225;28;20193;-63
2023/04/15 01:30:38;;;;;;;4.20;1.50;;;8.40;91.10;;;;;;5023032;28;20220;-63
2023/04/15 01:33:05;;;;;;;5.87;2.23;;;8.30;90.20;;;;;;5007009;28;20276;-63
2023/04/15 01:35:32;;;;;;;4.90;2.30;;;8.20;90.20;;;;;;5041756;28;20216;-63
2023/04/15 01:38:05;;;;;;;2.77;2.20;;;8.10;90.20;;;;;;5021491;28;20212;-63
2023/04/15 01:40:33;;;;;;;5.40;2.40;;;8.00;90.30;;;;;;5013957;28;20204;-63
2023/04/15 01:43:01;;;;;;;5.77;2.40;;;7.90;90.60;;;;;;5036696;28;20214;-63
2023/04/15 01:45:28;;;;;;;5.73;2.60;;;7.90;90.80;;;;;;5002347;28;20559;-63
2023/04/15 01:47:56;;;;;;;4.47;2.20;;;7.90;91.00;;;;;;5011622;28;20224;-63
2023/04/15 01:50:23;;;;;;;2.97;2.17;;;7.90;91.20;;;;;;5004100;28;20209;-63
2023/04/15 01:52:50;;;;;;;3.07;1.83;;;7.90;91.20;;;;;;5004438;28;20204;-63
2023/04/15 01:55:17;;;;;;;4.70;1.77;;;8.00;91.30;;;;;;5010879;28;20234;-63
2023/04/15 01:57:45;;;;;;;4.30;2.10;;;7.90;91.10;;;;;;5012729;28;20270;-63
2023/04/15 02:00:12;;;;;;;4.70;2.20;;;7.90;91.10;;;;;;5031059;28;20212;-63
2023/04/15 02:02:41;;;;;;;7.67;2.93;;;7.90;91.10;;;;;;5000843;28;20226;-63
2023/04/15 02:05:08;;;;;;;3.67;2.07;;;7.90;91.20;;;;;;5010672;28;20204;-63
2023/04/15 02:07:36;;;;;;;3.57;1.50;;;7.90;91.20;;;;;;5006832;28;20196;-63
2023/04/15 02:10:04;;;;;;;5.07;1.77;;;7.90;91.10;;;;;;5010791;28;20282;-63
2023/04/15 02:12:31;;;;;;;4.07;2.23;;;7.90;91.00;;;;;;5011574;28;20300;-63
2023/04/15 02:14:57;;;;;;;1.87;1.50;;;7.90;91.00;;;;;;5038597;28;20238;-63
2023/04/15 02:17:24;;;;;;;1.50;1.40;;;7.80;90.80;;;;;;5004927;28;20279;-62
2023/04/15 02:19:52;;;;;;;2.83;1.53;;;7.80;90.60;;;;;;5011430;28;20200;-63
2023/04/15 02:22:19;;;;;;;1.93;1.70;;;7.70;90.30;;;;;;5004841;28;20330;-63
2023/04/15 02:24:46;;;;;;;1.60;1.50;;;7.60;90.30;;;;;;5008335;28;20578;-63
2023/04/15 02:27:17;;;;;;;4.50;2.23;;;7.60;90.30;;;;;;5003219;28;20215;-63
2023/04/15 02:29:45;;;;;;;2.47;2.27;;;7.50;90.30;;;;;;5017885;28;20213;-63
2023/04/15 02:32:12;;;;;;;2.73;2.00;;;7.50;90.40;;;;;;5004538;28;20255;-63
2023/04/15 02:34:41;;;;;;;4.73;2.00;;;7.50;90.60;;;;;;5002598;28;20228;-63
2023/04/15 02:37:10;;;;;;;2.33;1.93;;;7.50;90.60;;;;;;5009062;28;20204;-63
2023/04/15 02:39:37;;;;;;;2.13;1.93;;;7.50;90.80;;;;;;5008984;28;20222;-63
2023/04/15 02:42:05;;;;;;;5.00;2.53;;;7.50;90.90;;;;;;5006809;28;20204;-63
2023/04/15 02:44:33;;;;;;;3.10;2.27;;;7.40;91.00;;;;;;5011236;28;20252;-63
2023/04/15 02:47:03;;;;;;;4.57;2.83;;;7.50;91.10;;;;;;5010204;28;20557;-63
2023/04/15 02:49:30;;;;;;;6.13;2.97;;;7.50;91.20;;;;;;5004394;28;20213;-63
2023/04/15 02:51:58;;;;;;;3.20;2.90;;;7.50;91.30;;;;;;5010820;28;20231;-63
2023/04/15 02:54:27;;;;;;;7.07;2.50;;;7.50;91.50;;;;;;5005903;28;20224;-63
2023/04/15 02:56:55;;;;;;;4.20;2.40;;;7.60;91.70;;;;;;5015763;28;20256;-63
2023/04/15 02:59:22;;;;;;;3.40;2.33;;;7.70;91.80;;;;;;4999706;28;20247;-63
2023/04/15 03:01:49;;;;;;;4.80;2.43;;;7.70;91.70;;;;;;5005656;28;20201;-63
2023/04/15 03:04:16;;;;;;;2.43;1.77;;;7.70;91.70;;;;;;5003093;28;20757;-63
2023/04/15 03:06:44;;;;;;;7.80;2.80;;;7.70;91.60;;;;;;5000819;28;20212;-63
2023/04/15 03:09:11;;;;;;;5.03;2.80;;;7.70;91.50;;;;;;5000908;28;20215;-63
2023/04/15 03:11:40;;;;;;;4.00;2.17;;;7.70;91.50;;;;;;5009098;28;20213;-63
2023/04/15 03:14:08;;;;;;;3.03;1.40;;;7.70;91.40;;;;;;5011908;28;20311;-63
2023/04/15 03:16:39;;;;;;;3.73;2.10;;;7.70;91.20;;;;;;5012991;28;20213;-63
2023/04/15 03:19:06;;;;;;;5.40;2.90;;;7.70;91.00;;;;;;5012983;28;20575;-63
2023/04/15 03:21:33;;;;;;;6.10;2.83;;;7.70;91.00;;;;;;5005777;28;20258;-63
2023/04/15 03:24:01;;;;;;;3.53;2.40;;;7.70;91.20;;;;;;5012119;28;20520;-63
2023/04/15 03:26:29;;;;;;;6.17;3.13;;;7.60;91.30;;;;;;5012203;28;20204;-63
2023/04/15 03:29:09;;;;;;;5.60;3.20;;;7.60;91.30;;;;;;5011062;28;20200;-63
2023/04/15 03:31:38;;;;;;;4.37;3.23;;;7.60;91.40;;;;;;5003730;28;20211;-63
2023/04/15 03:34:05;;;;;;;3.37;3.07;;;7.60;91.80;;;;;;5007399;28;20196;-63
2023/04/15 03:36:32;;;;;;;6.03;2.63;;;7.60;91.60;;;;;;5033797;28;20211;-63
2023/04/15 03:39:01;;;;;;;3.17;2.63;;;7.60;91.60;;;;;;5000198;28;20280;-63
2023/04/15 03:41:28;;;;;;;3.10;2.37;;;7.60;91.60;;;;;;5002505;28;20206;-63
2023/04/15 03:43:55;;;;;;;3.63;1.90;;;7.60;91.60;;;;;;5000462;28;20580;-63
2023/04/15 03:46:23;;;;;;;3.40;1.27;;;7.60;91.60;;;;;;5011858;28;20215;-63
2023/04/15 03:48:50;;;;;;;7.47;2.13;;;7.50;91.50;;;;;;5012714;28;20534;-63
2023/04/15 03:51:17;;;;;;;3.73;2.53;;;7.50;91.40;;;;;;5008058;28;20662;-63
2023/04/15 03:53:44;;;;;;;2.20;2.00;;;7.40;91.50;;;;;;5004535;28;20197;-63
2023/04/15 03:56:11;;;;;;;5.97;2.27;;;7.40;91.40;;;;;;5005317;28;20306;-63
2023/04/15 03:58:38;;;;;;;2.60;1.67;;;7.40;91.30;;;;;;5003142;28;20593;-63
2023/04/15 04:01:05;;;;;;;3.60;2.03;;;7.30;91.30;;;;;;5010562;28;20211;-63
2023/04/15 04:03:32;;;;;;;3.70;2.93;;;7.30;91.20;;;;;;5002248;28;20232;-62
2023/04/15 04:05:59;;;;;;;2.50;2.30;;;7.20;91.10;;;;;;5003193;28;20648;-63
2023/04/15 04:08:26;;;;;;;1.47;1.37;;;7.20;91.10;;;;;;5003320;28;20204;-63
2023/04/15 04:10:53;;;;;;;2.70;2.33;;;7.10;90.60;;;;;;5002151;28;20281;-63
2023/04/15 04:13:20;;;;;;;4.97;2.23;;;7.00;90.60;;;;;;5003077;28;20511;-62
2023/04/15 04:15:47;;;;;;;3.57;2.23;;;7.00;90.80;;;;;;5034811;28;20292;-63
2023/04/15 04:18:14;;;;;;;9.17;2.83;;;6.90;90.90;;;;;;5006215;28;20204;-63
2023/04/15 04:20:41;;;;;;;6.67;2.80;;;6.90;91.20;;;;;;5006960;28;20264;-63
2023/04/15 04:23:08;;;;;;;4.27;2.33;;;6.90;91.30;;;;;;5005147;28;20195;-63
2023/04/15 04:25:35;;;;;;;6.50;3.03;;;7.00;91.50;;;;;;5007619;28;20238;-63
2023/04/15 04:28:02;;;;;;;4.83;2.80;;;7.00;91.70;;;;;;5001833;28;20203;-63
2023/04/15 04:30:29;;;;;;;3.43;2.83;;;7.10;91.60;;;;;;5002857;28;20222;-63
2023/04/15 04:32:56;;;;;;;4.63;2.60;;;7.00;91.50;;;;;;5001824;28;20528;-63
2023/04/15 04:35:23;;;;;;;3.17;2.83;;;7.00;91.40;;;;;;5000773;28;20283;-63
2023/04/15 04:37:51;;;;;;;3.73;2.43;;;7.10;91.40;;;;;;5003516;28;20307;-62
2023/04/15 04:40:18;;;;;;;5.40;2.90;;;7.00;91.50;;;;;;5005701;28;20205;-62
2023/04/15 04:42:45;;;;;;;5.83;2.53;;;7.10;91.70;;;;;;5006891;28;20200;-62
2023/04/15 04:45:12;;;;;;;5.43;2.90;;;7.10;91.90;;;;;;5004947;28;20231;-62
2023/04/15 04:47:39;;;;;;;3.80;2.60;;;7.10;91.90;;;;;;5012161;28;20225;-62
2023/04/15 04:50:08;;;;;;;5.60;3.53;;;7.10;92.00;;;;;;5005061;28;20195;-62
2023/04/15 04:52:35;;;;;;;6.43;3.50;;;7.20;92.00;;;;;;5004566;28;20291;-62
2023/04/15 04:55:02;;;;;;;6.63;3.70;;;7.30;92.10;;;;;;5009406;28;20629;-62
2023/04/15 04:57:29;;;;;;;6.97;3.23;;;7.20;92.10;;;;;;5010996;28;20208;-62
2023/04/15 04:59:56;;;;;;;6.37;3.17;;;7.30;92.20;;;;;;5002028;28;20200;-63
2023/04/15 05:02:25;;;;;;;3.70;3.30;;;7.30;92.20;;;;;;5003428;28;20197;-63
2023/04/15 05:04:56;;;;;;;5.17;3.67;;;7.30;92.40;;;;;;5005713;28;20200;-62
2023/04/15 05:07:23;;;;;;;4.90;3.60;;;7.30;92.40;;;;;;5008401;28;20272;-63
2023/04/15 05:09:49;;;;;;;8.13;3.97;;;7.40;92.50;;;;;;5007598;28;20629;-63
2023/04/15 05:12:17;;;;;;;5.63;3.80;;;7.50;92.50;;;;;;5013124;28;20216;-62
2023/04/15 05:14:45;;;;;;;11.33;3.83;;;7.50;92.40;;;;;;5005871;28;20634;-62
2023/04/15 05:17:13;;;;;;;9.97;3.77;;;7.50;92.50;;;;;;5043086;28;20201;-63
2023/04/15 05:19:40;;;;;;;7.00;3.50;;;7.50;92.50;;;;;;5038551;28;20628;-63
2023/04/15 05:22:07;;;;;;;4.80;3.47;;;7.60;92.60;;;;;;5005015;28;20220;-62
2023/04/15 05:24:33;;;;;;;5.30;4.23;;;7.60;92.60;;;;;;5005623;28;20266;-62
2023/04/15 05:27:00;;;;;;;9.43;4.40;;;7.60;92.70;;;;;;5006243;28;20191;-62
2023/04/15 05:29:28;;;;;;;8.30;4.40;;;7.70;93.10;;;;;;5003946;28;20204;-62
2023/04/15 05:31:55;;;;;;;8.03;3.90;;;7.70;92.90;;;;;;5004643;28;20213;-62
2023/04/15 05:34:22;;;;;;;5.87;4.10;;;7.80;92.90;;;;;;5014332;28;20211;-62
2023/04/15 05:36:49;;;;;;;5.73;4.03;;;7.90;93.00;;;;;;5001912;28;20200;-62
2023/04/15 05:39:16;;;;;;;4.53;3.93;;;7.90;93.10;;;;;;5010253;28;20201;-63
2023/04/15 05:41:44;;;;;;;8.67;3.93;;;8.10;93.20;;;;;;5005244;28;20220;-62
2023/04/15 05:44:11;;;;;;;6.90;4.87;;;8.10;93.20;;;;;;5003598;28;20208;-62
2023/04/15 05:46:38;;;;;;;8.00;4.50;;;8.30;93.10;;;;;;5010360;28;20205;-63
2023/04/15 05:49:05;;;;;;;9.37;5.50;;;8.30;93.00;;;;;;5006541;28;20292;-62
2023/04/15 05:51:32;;;;;;;5.87;5.23;;;8.40;93.10;;;;;;5010883;28;20219;-62
2023/04/15 05:53:59;;;;;;;7.33;5.30;;;8.50;93.20;;;;;;5005684;28;20278;-62
2023/04/15 05:56:26;;;;;;;7.23;5.80;;;8.60;93.20;;;;;;5001925;28;20217;-62
2023/04/15 05:58:53;;;;;;;8.93;6.10;;;8.70;93.30;;;;;;5012219;28;20328;-62
2023/04/15 06:01:20;;;;;;;8.93;5.53;;;8.90;93.40;;;;;;5007358;28;20209;-62
2023/04/15 06:03:47;;;;;;;6.77;5.47;;;9.00;93.50;;;;;;5006322;28;20200;-63
2023/04/15 06:06:14;;;;;;;10.27;6.03;;;9.10;93.40;;;;;;4999613;28;20646;-63
2023/04/15 06:08:41;;;;;;;8.50;6.50;;;9.10;93.30;;;;;;5009925;28;20209;-63
2023/04/15 06:11:08;;;;;;;11.33;6.90;;;9.20;93.40;;;;;;5004725;28;20210;-63
2023/04/15 06:13:35;;;;;;;8.97;7.47;;;9.20;93.40;;;;;;5039099;28;20263;-62
2023/04/15 06:16:03;;;;;;;8.47;7.13;;;9.30;93.50;;;;;;5005098;28;20298;-62
2023/04/15 06:18:30;;;;;;;10.63;7.83;;;9.30;93.60;;;;;;5012123;28;20209;-63
2023/04/15 06:20:57;;;;;;;10.97;8.13;;;9.40;93.90;;;;;;5010064;28;20224;-64
2023/04/15 06:23:24;;;;;;;8.83;7.70;;;9.50;94.00;;;;;;5003331;28;20632;-63
2023/04/15 06:25:53;;;;;;;10.60;8.03;;;9.60;94.20;;;;;;5008560;28;20213;-63
2023/04/15 06:28:20;;;;;;;9.23;7.20;;;9.70;94.20;;;;;;5019067;28;20213;-63
2023/04/15 06:30:47;;;;;;;8.93;6.83;;;9.90;94.10;;;;;;5010290;28;20207;-63
2023/04/15 06:33:14;;;;;;;8.37;7.10;;;10.00;94.10;;;;;;5003374;28;20218;-63
2023/04/15 06:35:41;;;;;;;9.37;7.10;;;10.10;94.00;;;;;;5007243;28;20216;-63
2023/04/15 06:38:09;;;;;;;7.93;7.13;;;10.30;93.80;;;;;;5003479;28;20209;-63
2023/04/15 06:40:36;;;;;;;9.33;7.30;;;10.40;93.80;;;;;;5004151;28;20213;-63
2023/04/15 06:43:03;;;;;;;10.87;7.13;;;10.50;93.80;;;;;;5007166;28;21127;-63
2023/04/15 06:45:31;;;;;;;11.07;7.97;;;10.60;93.70;;;;;;4997173;28;20261;-63
2023/04/15 06:47:58;;;;;;;8.27;7.47;;;10.70;93.70;;;;;;5009666;28;20621;-63
2023/04/15 06:50:26;;;;;;;9.63;7.77;;;10.80;93.70;;;;;;5002169;28;20302;-63
2023/04/15 06:52:55;;;;;;;12.10;8.10;;;11.00;93.60;;;;;;5004419;28;20265;-63
2023/04/15 06:55:22;;;;;;;11.83;8.07;;;11.10;93.40;;;;;;5005533;28;20271;-63
2023/04/15 06:57:49;;;;;;;10.20;7.57;;;11.30;93.40;;;;;;5005772;28;20199;-63
2023/04/15 07:00:17;;;;;;;8.57;7.13;;;11.40;93.40;;;;;;5003313;28;20604;-63
2023/04/15 07:02:44;;;;;;;8.77;7.60;;;11.60;93.30;;;;;;5006864;28;20200;-63
2023/04/15 07:05:11;;;;;;;8.50;7.07;;;11.80;93.10;;;;;;5005805;28;20595;-63
2023/04/15 07:07:38;;;;;;;8.27;7.37;;;11.90;93.10;;;;;;5006718;28;20216;-63
2023/04/15 07:10:06;;;;;;;13.90;7.30;;;12.00;92.60;;;;;;5010511;28;20202;-63
2023/04/15 07:12:34;;;;;;;8.80;7.40;;;12.10;92.40;;;;;;5005582;28;20210;-63
2023/04/15 07:15:01;;;;;;;8.17;7.23;;;12.20;92.20;;;;;;5007848;28;20283;-63
2023/04/15 07:17:28;;;;;;;9.30;6.97;;;12.30;92.10;;;;;;5006032;28;20583;-63
2023/04/15 07:19:55;;;;;;;9.83;7.80;;;12.50;92.00;;;;;;5007504;28;20203;-64
2023/04/15 07:22:22;;;;;;;9.83;7.20;;;12.60;91.60;;;;;;5000432;28;20807;-63
2023/04/15 07:24:49;;;;;;;14.07;7.70;;;12.70;91.50;;;;;;5005295;28;20286;-63
2023/04/15 07:27:16;;;;;;;10.47;7.33;;;12.70;91.20;;;;;;5002119;28;20658;-64
2023/04/15 07:29:43;;;;;;;9.07;7.07;;;12.70;91.10;;;;;;5005638;28;20228;-63
2023/04/15 07:32:10;;;;;;;9.33;6.63;;;12.70;91.10;;;;;;5007251;28;20256;-63
2023/04/15 07:34:37;;;;;;;9.87;7.43;;;12.70;91.40;;;;;;5003329;28;20275;-63
2023/04/15 07:37:04;;;;;;;8.47;6.57;;;12.80;91.40;;;;;;5001531;28;20231;-64
2023/04/15 07:39:31;;;;;;;10.30;7.37;;;12.80;91.30;;;;;;5002600;28;20312;-63
2023/04/15 07:41:58;;;;;;;9.40;6.57;;;12.90;91.30;;;;;;5002945;28;20344;-64
2023/04/15 07:44:26;;;;;;;8.43;7.53;;;12.90;91.20;;;;;;5005412;28;20282;-64
2023/04/15 07:46:53;;;;;;;9.07;7.20;;;13.00;91.30;;;;;;5008334;28;20207;-64
2023/04/15 07:49:20;;;;;;;12.37;6.90;;;13.10;91.20;;;;;;5004661;28;20632;-63
2023/04/15 07:51:48;;;;;;;7.00;6.30;;;13.10;91.20;;;;;;5004534;28;20301;-64
2023/04/15 07:54:16;;;;;;;9.37;5.97;;;13.20;90.70;;;;;;5007192;28;20227;-64
2023/04/15 07:56:43;;;;;;;10.57;6.80;;;13.30;90.60;;;;;;5000812;28;20226;-64
2023/04/15 07:59:10;;;;;;;10.03;7.20;;;13.30;90.70;;;;;;5005111;28;20207;-64
2023/04/15 08:01:37;;;;;;;7.40;6.70;;;13.30;90.50;;;;;;5003284;28;20229;-63
2023/04/15 08:04:04;;;;;;;10.60;5.80;;;13.40;90.70;;;;;;5004220;28;20257;-64
2023/04/15 08:06:32;;;;;;;8.70;6.37;;;13.50;90.90;;;;;;5003720;28;20204;-64
2023/04/15 08:08:59;;;;;;;9.70;7.73;;;13.60;90.70;;;;;;5004163;28;20223;-64
2023/04/15 08:11:26;;;;;;;10.77;6.83;;;13.80;90.90;;;;;;5004892;28;20279;-64
2023/04/15 08:13:53;;;;;;;7.30;5.97;;;14.00;91.10;;;;;;5000794;28;20235;-64
2023/04/15 08:16:23;;;;;;;7.63;5.77;;;14.20;90.60;;;;;;5003411;28;20540;-64
2023/04/15 08:18:51;;;;;;;11.57;5.67;;;14.40;90.40;;;;;;5010222;28;20202;-64
2023/04/15 08:21:19;;;;;;;8.27;5.50;;;14.70;89.50;;;;;;5001507;28;20258;-64
2023/04/15 08:23:49;;;;;;;7.73;5.20;;;14.80;86.80;;;;;;5005962;28;20253;-64
2023/04/15 08:26:16;;;;;;;6.27;4.83;;;14.90;85.60;;;;;;5006692;28;20288;-64
2023/04/15 08:28:44;;;;;;;9.50;5.53;;;15.00;86.40;;;;;;5005701;28;20236;-64
2023/04/15 08:31:13;;;;;;;9.20;5.63;;;15.10;85.40;;;;;;5000795;28;20269;-64
2023/04/15 08:33:40;;;;;;;8.30;5.97;;;15.20;84.90;;;;;;5001761;28;20286;-64
2023/04/15 08:36:08;;;;;;;8.97;6.20;;;15.30;85.40;;;;;;5009058;28;20244;-64
2023/04/15 08:38:36;;;;;;;6.57;5.43;;;15.50;83.20;;;;;;5004877;28;20207;-64
2023/04/15 08:41:09;;;;;;;10.00;5.40;;;15.50;82.20;;;;;;5012716;28;20541;-64
2023/04/15 08:43:46;;;;;;;6.47;5.20;;;15.60;82.50;;;;;;5005578;28;20197;-64
2023/04/15 08:46:14;;;;;;;5.57;4.70;;;15.70;82.50;;;;;;5001247;28;20297;-64
2023/04/15 08:48:41;;;;;;;5.07;4.57;;;15.80;82.50;;;;;;5008841;28;20236;-65
2023/04/15 08:51:09;;;;;;;8.13;4.43;;;15.90;81.30;;;;;;5008496;28;20218;-64
2023/04/15 08:53:36;;;;;;;5.73;4.03;;;16.00;80.40;;;;;;5002604;28;20239;-64
2023/04/15 08:56:06;;;;;;;4.83;3.40;;;16.10;78.70;;;;;;5008066;28;20223;-65
2023/04/15 08:58:34;;;;;;;5.97;3.60;;;16.20;75.70;;;;;;5004941;28;20234;-64
2023/04/15 09:01:02;;;;;;;6.57;3.40;;;16.20;75.90;;;;;;5007890;28;20211;-65
2023/04/15 09:03:30;;;;;;;10.50;3.30;;;16.30;73.30;;;;;;5008328;28;20196;-65
2023/04/15 09:05:58;;;;;;;5.13;4.23;;;16.30;73.70;;;;;;5003058;28;20581;-65
2023/04/15 09:08:25;;;;;;;5.60;3.70;;;16.40;73.80;;;;;;5001551;28;20243;-65
2023/04/15 09:10:53;;;;;;;6.97;3.27;;;16.40;75.20;;;;;;5006328;28;21034;-64
2023/04/15 09:13:20;;;;;;;6.63;3.83;;;16.50;73.90;;;;;;5002076;28;20283;-65
2023/04/15 09:15:48;;;;;;;5.57;3.70;;;16.60;74.10;;;;;;5003545;28;20550;-64
2023/04/15 09:18:28;;;;;;;7.33;4.47;;;16.70;75.40;;;;;;5003164;28;20198;-65
2023/04/15 09:20:56;;;;;;;7.03;5.03;;;16.80;74.20;;;;;;5003521;28;20189;-65
2023/04/15 09:23:23;;;;;;;6.53;3.83;;;17.00;74.30;;;;;;5038177;28;20232;-64
2023/04/15 09:25:50;;;;;;;4.63;3.60;;;17.10;74.40;;;;;;5006328;28;20203;-65
2023/04/15 09:28:24;;;;;;;5.73;3.70;;;17.30;73.60;;;;;;5009297;28;20304;-65
2023/04/15 09:30:56;;;;;;;9.83;3.30;;;17.40;71.50;;;;;;5006138;28;20265;-65
2023/04/15 09:33:25;;;;;;;3.87;2.70;;;17.60;71.80;;;;;;5020518;28;20640;-65
2023/04/15 09:36:10;;;;;;;7.10;3.63;;;17.70;71.70;;;;;;5004813;28;20211;-65
2023/04/15 09:38:56;;;;;;;4.33;2.53;;;17.70;66.10;;;;;;5012567;28;20627;-65
2023/04/15 09:41:25;;;;;;;4.00;2.77;;;17.80;67.50;;;;;;5005322;28;20641;-65
2023/04/15 09:43:52;;;;;;;7.73;2.47;;;17.80;65.50;;;;;;5005517;28;20579;-65
2023/04/15 09:46:19;;;;;;;5.03;2.13;;;17.90;65.30;;;;;;5006436;28;20300;-65
2023/04/15 09:48:47;;;;;;;6.10;3.23;;;18.00;65.00;;;;;;5028594;28;20222;-65
2023/04/15 09:51:14;;;;;;;4.97;2.90;;;18.20;64.30;;;;;;5003204;28;20635;-65
2023/04/15 09:53:41;;;;;;;4.67;2.20;;;18.30;64.00;;;;;;5007936;28;20600;-65
2023/04/15 09:56:09;;;;;;;7.97;2.57;;;18.40;63.80;;;;;;5003913;28;20643;-66
2023/04/15 09:58:37;;;;;;;4.80;2.50;;;18.50;62.70;;;;;;5006156;28;20199;-65
2023/04/15 10:01:06;;;;;;;4.37;2.03;;;18.60;64.10;;;;;;5003079;28;20200;-65
2023/04/15 10:03:36;;;;;;;4.73;2.27;;;18.70;64.70;;;;;;5007256;28;20214;-65
2023/04/15 10:06:06;;;;;;;9.87;2.60;;;18.80;62.50;;;;;;5007624;28;20260;-66
2023/04/15 10:08:33;;;;;;;6.63;2.53;;;19.00;61.10;;;;;;5037790;28;20231;-65
2023/04/15 10:11:02;;;;;;;4.80;2.77;;;19.10;59.80;;;;;;5010330;28;20678;-65
2023/04/15 10:13:36;;;;;;;6.83;2.70;;;19.20;59.00;;;;;;5003711;28;20238;-66
2023/04/15 10:16:10;;;;;;;3.67;2.60;;;19.30;59.20;;;;;;5036707;28;20230;-66
2023/04/15 10:18:42;;;;;;;5.50;2.57;;;19.30;60.90;;;;;;5006365;28;20596;-66
2023/04/15 10:21:10;;;;;;;8.17;2.50;;;19.30;60.50;;;;;;5006446;28;20306;-65
2023/04/15 10:23:37;;;;;;;6.23;2.03;;;19.40;60.00;;;;;;5004104;28;20258;-66
2023/04/15 10:26:06;;;;;;;4.70;2.73;;;19.50;58.20;;;;;;5009537;28;20230;-66
2023/04/15 10:28:33;;;;;;;5.90;2.20;;;19.60;58.70;;;;;;5013350;28;20602;-66
2023/04/15 10:31:01;;;;;;;7.77;2.43;;;19.70;58.60;;;;;;5007939;28;20203;-66
2023/04/15 10:33:28;;;;;;;5.57;2.73;;;19.80;58.40;;;;;;5004471;28;20652;-66
2023/04/15 10:35:56;;;;;;;5.73;2.47;;;19.90;59.70;;;;;;5005877;28;20291;-65
2023/04/15 10:38:38;;;;;;;7.53;2.70;;;19.90;58.30;;;;;;5003878;28;20203;-66
2023/04/15 10:41:33;;;;;;;6.43;2.73;;;19.90;55.90;;;;;;5018789;28;20226;-66
2023/04/15 10:44:02;;;;;;;3.97;2.53;;;19.90;58.20;;;;;;5004084;28;20248;-66
2023/04/15 10:46:40;;;;;;;6.13;2.80;;;19.90;57.00;;;;;;5003010;28;20246;-66
2023/04/15 10:49:23;;;;;;;6.13;2.20;;;20.10;56.70;;;;;;5004970;28;20297;-66
2023/04/15 10:51:52;;;;;;;5.07;2.90;;;20.10;56.80;;;;;;5002742;28;20211;-66
2023/04/15 10:54:25;;;;;;;6.70;2.83;;;20.20;55.80;;;;;;5034553;28;20668;-66
2023/04/15 10:57:22;;;;;;;6.17;2.93;;;20.20;55.50;;;;;;5004827;28;20224;-66
2023/04/15 11:00:16;;;;;;;6.93;2.87;;;20.30;57.00;;;;;;5010534;28;20256;-66
2023/04/15 11:03:09;;;;;;;3.67;2.77;;;20.30;56.00;;;;;;5005455;28;20255;-66
2023/04/15 11:05:51;;;;;;;4.43;2.50;;;20.40;57.10;;;;;;5013269;28;20199;-64
2023/04/15 11:08:19;;;;;;;3.13;2.60;;;20.40;55.10;;;;;;5008408;28;20652;-66
2023/04/15 11:10:46;;;;;;;7.07;2.53;;;20.50;55.20;;;;;;5021126;28;20224;-66
2023/04/15 11:13:20;;;;;;;9.17;3.03;;;20.60;54.00;;;;;;5005040;28;20195;-66
2023/04/15 11:15:48;;;;;;;5.60;2.60;;;20.70;54.70;;;;;;5002718;28;20210;-66
2023/04/15 11:18:17;;;;;;;6.50;2.17;;;20.70;53.90;;;;;;5004241;28;20207;-66
2023/04/15 11:20:46;;;;;;;4.23;2.53;;;20.70;52.00;;;;;;5004817;28;20203;-66
2023/04/15 11:23:30;;;;;;;4.80;2.53;;;20.70;52.20;;;;;;5003452;28;20535;-66
2023/04/15 11:25:59;;;;;;;3.97;2.47;;;20.70;51.60;;;;;;5005919;28;20188;-66
2023/04/15 11:28:27;;;;;;;5.87;2.23;;;20.80;51.70;;;;;;5000062;28;20228;-66
2023/04/15 11:30:55;;;;;;;5.37;2.70;;;20.70;52.30;;;;;;5005339;28;20208;-65
2023/04/15 11:33:23;;;;;;;7.00;2.43;;;20.80;52.00;;;;;;4998629;28;20577;-66
2023/04/15 11:35:53;;;;;;;8.97;2.50;;;20.80;50.40;;;;;;5001980;28;20580;-66
2023/04/15 11:38:21;;;;;;;5.67;2.40;;;20.80;50.60;;;;;;5001525;28;20209;-66
2023/04/15 11:40:50;;;;;;;5.07;2.53;;;20.80;50.50;;;;;;5019866;28;20598;-65
2023/04/15 11:43:21;;;;;;;4.97;2.30;;;20.90;50.90;;;;;;5007831;28;20200;-66
2023/04/15 11:45:56;;;;;;;5.70;2.20;;;20.80;51.60;;;;;;5000255;28;20247;-66
2023/04/15 11:48:32;;;;;;;5.50;2.90;;;20.80;51.40;;;;;;5007431;28;20273;-66
2023/04/15 11:51:04;;;;;;;6.43;3.00;;;20.80;52.80;;;;;;5001555;28;20641;-66
2023/04/15 11:53:43;;;;;;;7.07;2.50;;;20.80;52.50;;;;;;5004271;28;20227;-66
2023/04/15 11:56:31;;;;;;;7.93;2.70;;;20.80;52.10;;;;;;5000587;28;20649;-66
2023/04/15 11:58:58;;;;;;;4.97;2.60;;;20.90;53.10;;;;;;5002856;28;20196;-66
2023/04/15 12:01:34;;;;;;;4.63;2.63;;;20.90;53.40;;;;;;5003317;28;20232;-65
2023/04/15 12:04:02;;;;;;;4.80;2.57;;;20.90;51.70;;;;;;5034528;28;20226;-66
2023/04/15 12:06:33;;;;;;;4.87;2.67;;;20.90;50.60;;;;;;4999833;28;20199;-66
2023/04/15 12:09:08;;;;;;;3.73;2.20;;;20.80;51.90;;;;;;5007957;28;20208;-66
2023/04/15 12:11:43;;;;;;;5.10;2.50;;;20.80;51.30;;;;;;4998438;28;20221;-66
2023/04/15 12:14:29;;;;;;;11.13;3.37;;;20.80;53.00;;;;;;5008241;28;20196;-66
2023/04/15 12:17:05;;;;;;;6.87;2.60;;;20.90;53.50;;;;;;5005762;28;20217;-66
2023/04/15 12:19:38;;;;;;;6.70;2.50;;;21.00;54.40;;;;;;5004892;28;20196;-66
2023/04/15 12:22:06;;;;;;;5.13;2.03;;;21.10;53.90;;;;;;5004874;28;20278;-66
2023/04/15 12:24:34;;;;;;;5.60;3.13;;;21.10;52.20;;;;;;5008757;28;20284;-66
2023/04/15 12:27:12;;;;;;;8.37;3.27;;;21.10;52.20;;;;;;5004893;28;20222;-66
2023/04/15 12:29:40;;;;;;;11.13;2.97;;;21.10;53.00;;;;;;5017349;28;20200;-66
2023/04/15 12:32:12;;;;;;;3.27;2.60;;;21.10;53.00;;;;;;5000966;28;20617;-65
2023/04/15 12:34:49;;;;;;;4.03;2.47;;;21.10;52.30;;;;;;5032478;28;20204;-65
2023/04/15 12:37:16;;;;;;;8.07;2.90;;;21.10;52.70;;;;;;5001983;28;20294;-65
2023/04/15 12:39:50;;;;;;;4.90;2.47;;;21.10;53.10;;;;;;5011444;28;20204;-66
2023/04/15 12:42:17;;;;;;;5.50;3.10;;;21.10;52.90;;;;;;4997449;28;20638;-65
2023/04/15 12:44:45;;;;;;;4.73;2.67;;;21.00;52.00;;;;;;5008881;28;20322;-65
2023/04/15 12:47:12;;;;;;;7.57;2.47;;;21.00;52.90;;;;;;5008844;28;20208;-66
2023/04/15 12:49:39;;;;;;;5.83;2.07;;;20.90;53.00;;;;;;5007926;28;20225;-66
2023/04/15 12:52:07;;;;;;;7.83;2.60;;;20.90;52.10;;;;;;5007202;28;20640;-65
2023/04/15 12:54:35;;;;;;;4.77;2.47;;;20.90;52.70;;;;;;5004147;28;20200;-65
2023/04/15 12:57:02;;;;;;;4.50;2.63;;;20.90;49.80;;;;;;5002825;28;20683;-66
2023/04/15 12:59:32;;;;;;;4.40;1.90;;;20.90;51.30;;;;;;4999508;28;20208;-66